createdAt,value
2018-10-03T00:00:05.593Z,99.90
2018-10-03T00:02:33.831Z,99.90
2018-10-03T00:05:02.267Z,99.90
2018-10-03T00:07:30.632Z,99.90
2018-10-03T00:09:58.915Z,99.90
2018-10-03T00:12:27.226Z,99.90
2018-10-03T00:14:55.546Z,99.90
2018-10-03T00:17:24.017Z,99.90
2018-10-03T00:19:52.277Z,99.90
2018-10-03T00:22:20.608Z,99.90
2018-10-03T00:24:48.926Z,99.90
2018-10-03T00:27:17.137Z,99.90
2018-10-03T00:29:45.430Z,99.90
2018-10-03T00:32:13.746Z,99.90
2018-10-03T00:34:42.022Z,99.90
2018-10-03T00:37:10.418Z,99.90
2018-10-03T00:39:38.638Z,99.90
2018-10-03T00:42:06.921Z,99.90
2018-10-03T00:44:35.185Z,99.90
2018-10-03T00:47:03.463Z,99.90
2018-10-03T00:49:31.729Z,99.90
2018-10-03T00:52:00.025Z,99.90
2018-10-03T00:54:28.772Z,99.90
2018-10-03T00:56:57.303Z,99.90
2018-10-03T00:59:26.326Z,99.90
2018-10-03T01:01:54.886Z,99.90
2018-10-03T01:04:23.222Z,99.90
2018-10-03T01:06:51.489Z,99.90
2018-10-03T01:09:19.780Z,99.90
2018-10-03T01:11:48.015Z,99.90
2018-10-03T01:14:16.266Z,99.90
2018-10-03T01:16:44.479Z,99.90
2018-10-03T01:19:12.766Z,99.90
2018-10-03T01:21:40.988Z,99.90
2018-10-03T01:24:09.270Z,99.90
2018-10-03T01:26:37.510Z,99.90
2018-10-03T01:29:06.031Z,99.90
2018-10-03T01:31:34.405Z,99.90
2018-10-03T01:34:02.615Z,99.90
2018-10-03T01:36:30.904Z,99.90
2018-10-03T01:38:59.206Z,99.90
2018-10-03T01:41:27.472Z,99.90
2018-10-03T01:43:55.745Z,99.90
2018-10-03T01:46:24.070Z,99.90
2018-10-03T01:48:52.448Z,99.90
2018-10-03T01:51:20.730Z,99.90
2018-10-03T01:53:49.107Z,99.90
2018-10-03T01:56:17.313Z,99.90
2018-10-03T01:58:45.546Z,99.90
2018-10-03T02:01:13.868Z,99.90
2018-10-03T02:03:42.058Z,99.90
2018-10-03T02:06:10.387Z,99.90
2018-10-03T02:08:38.620Z,99.90
2018-10-03T02:11:06.965Z,99.90
2018-10-03T02:13:35.236Z,99.90
2018-10-03T02:16:03.476Z,99.90
2018-10-03T02:18:31.778Z,99.90
2018-10-03T02:21:00.013Z,99.90
2018-10-03T02:23:28.188Z,99.90
2018-10-03T02:25:56.459Z,99.90
2018-10-03T02:28:24.662Z,99.90
2018-10-03T02:30:53.076Z,99.90
2018-10-03T02:33:21.380Z,99.90
2018-10-03T02:35:49.639Z,99.90
2018-10-03T02:38:18.574Z,99.90
2018-10-03T02:40:47.428Z,99.90
2018-10-03T02:43:15.618Z,99.90
2018-10-03T02:45:43.832Z,99.90
2018-10-03T02:48:12.135Z,99.90
2018-10-03T02:50:40.368Z,99.90
2018-10-03T02:53:08.699Z,99.90
2018-10-03T02:55:36.942Z,99.90
2018-10-03T02:58:05.260Z,99.90
2018-10-03T03:00:33.544Z,99.90
2018-10-03T03:03:01.778Z,99.90
2018-10-03T03:05:30.039Z,99.90
2018-10-03T03:07:58.304Z,99.90
2018-10-03T03:10:26.537Z,99.90
2018-10-03T03:12:54.825Z,99.90
2018-10-03T03:15:23.592Z,99.90
2018-10-03T03:17:51.837Z,99.90
2018-10-03T03:20:20.189Z,99.90
2018-10-03T03:22:48.639Z,99.90
2018-10-03T03:25:16.958Z,99.90
2018-10-03T03:27:45.179Z,99.90
2018-10-03T03:30:13.434Z,99.90
2018-10-03T03:32:41.672Z,99.90
2018-10-03T03:35:09.889Z,99.90
2018-10-03T03:37:38.193Z,99.90
2018-10-03T03:40:06.513Z,99.90
2018-10-03T03:42:34.846Z,99.90
2018-10-03T03:45:03.171Z,99.90
2018-10-03T03:47:31.497Z,99.90
2018-10-03T03:49:59.847Z,99.90
2018-10-03T03:52:28.254Z,99.90
2018-10-03T03:54:56.506Z,99.90
2018-10-03T03:57:24.787Z,99.90
2018-10-03T03:59:53.363Z,99.90
2018-10-03T04:02:22.351Z,99.90
2018-10-03T04:04:50.737Z,99.90
2018-10-03T04:07:19.833Z,99.90
2018-10-03T04:09:48.152Z,99.90
2018-10-03T04:12:16.579Z,99.90
2018-10-03T04:14:44.871Z,99.90
2018-10-03T04:17:13.387Z,99.90
2018-10-03T04:19:41.822Z,99.90
2018-10-03T04:22:10.009Z,99.90
2018-10-03T04:24:38.346Z,99.90
2018-10-03T04:27:06.825Z,99.90
2018-10-03T04:29:35.151Z,99.90
2018-10-03T04:32:03.395Z,99.90
2018-10-03T04:34:31.697Z,99.90
2018-10-03T04:37:00.109Z,99.90
2018-10-03T04:39:28.483Z,99.90
2018-10-03T04:41:56.763Z,99.90
2018-10-03T04:44:25.113Z,99.90
2018-10-03T04:46:53.724Z,99.90
2018-10-03T04:49:21.934Z,99.90
2018-10-03T04:51:50.205Z,99.90
2018-10-03T04:54:18.469Z,99.90
2018-10-03T04:56:46.989Z,99.90
2018-10-03T04:59:15.249Z,99.90
2018-10-03T05:01:43.615Z,99.90
2018-10-03T05:04:12.107Z,99.90
2018-10-03T05:06:40.332Z,99.90
2018-10-03T05:09:08.556Z,99.90
2018-10-03T05:11:36.963Z,99.90
2018-10-03T05:14:05.383Z,99.90
2018-10-03T05:16:33.630Z,99.90
2018-10-03T05:19:01.972Z,99.90
2018-10-03T05:21:30.216Z,99.90
2018-10-03T05:23:58.473Z,99.90
2018-10-03T05:26:26.712Z,99.90
2018-10-03T05:28:55.047Z,99.90
2018-10-03T05:31:23.470Z,99.90
2018-10-03T05:33:51.697Z,99.90
2018-10-03T05:36:19.884Z,99.90
2018-10-03T05:38:48.362Z,99.90
2018-10-03T05:41:16.610Z,99.90
2018-10-03T05:43:44.874Z,99.90
2018-10-03T05:46:13.194Z,99.90
2018-10-03T05:48:41.699Z,99.90
2018-10-03T05:51:10.160Z,99.90
2018-10-03T05:53:38.554Z,99.90
2018-10-03T05:56:07.229Z,99.90
2018-10-03T05:58:35.653Z,99.90
2018-10-03T06:01:03.913Z,99.90
2018-10-03T06:03:32.206Z,99.90
2018-10-03T06:06:00.672Z,99.90
2018-10-03T06:08:29.157Z,99.90
2018-10-03T06:10:58.653Z,99.90
2018-10-03T06:13:26.974Z,99.90
2018-10-03T06:15:55.289Z,99.90
2018-10-03T06:18:23.511Z,99.90
2018-10-03T06:20:53.058Z,99.90
2018-10-03T06:23:21.432Z,99.90
2018-10-03T06:25:49.869Z,99.90
2018-10-03T06:28:18.397Z,99.90
2018-10-03T06:30:46.773Z,99.90
2018-10-03T06:33:16.169Z,99.90
2018-10-03T06:35:44.440Z,99.90
2018-10-03T06:38:12.809Z,99.90
2018-10-03T06:40:41.730Z,99.90
2018-10-03T06:43:10.602Z,99.90
2018-10-03T06:45:39.207Z,99.90
2018-10-03T06:48:07.818Z,99.90
2018-10-03T06:50:36.750Z,99.90
2018-10-03T06:53:05.090Z,99.90
2018-10-03T06:55:33.706Z,99.90
2018-10-03T06:58:02.694Z,99.90
2018-10-03T07:00:31.223Z,99.90
2018-10-03T07:02:59.521Z,99.90
2018-10-03T07:05:28.226Z,99.90
2018-10-03T07:07:56.570Z,99.90
2018-10-03T07:10:24.817Z,99.90
2018-10-03T07:12:53.184Z,99.70
2018-10-03T07:15:21.426Z,99.90
2018-10-03T07:17:49.935Z,99.80
2018-10-03T07:20:18.282Z,99.30
2018-10-03T07:22:46.965Z,99.30
2018-10-03T07:25:15.635Z,99.30
2018-10-03T07:27:44.021Z,99.20
2018-10-03T07:30:12.663Z,98.70
2018-10-03T07:32:43.530Z,98.30
2018-10-03T07:35:12.223Z,98.30
2018-10-03T07:37:40.781Z,98.20
2018-10-03T07:40:09.455Z,98.20
2018-10-03T07:42:37.842Z,98.30
2018-10-03T07:45:06.739Z,98.40
2018-10-03T07:47:35.187Z,98.20
2018-10-03T07:50:03.915Z,98.70
2018-10-03T07:52:33.747Z,98.70
2018-10-03T07:55:03.514Z,99.00
2018-10-03T07:57:35.450Z,98.90
2018-10-03T08:00:04.597Z,99.00
2018-10-03T08:02:33.307Z,98.50
2018-10-03T08:05:02.062Z,98.10
2018-10-03T08:07:30.388Z,98.20
2018-10-03T08:09:58.882Z,98.40
2018-10-03T08:12:27.293Z,98.20
2018-10-03T08:14:55.724Z,98.70
2018-10-03T08:17:24.305Z,98.10
2018-10-03T08:19:53.161Z,97.80
2018-10-03T08:22:21.825Z,97.50
2018-10-03T08:24:50.315Z,97.40
2018-10-03T08:27:18.830Z,97.50
2018-10-03T08:29:47.479Z,96.80
2018-10-03T08:32:16.209Z,96.60
2018-10-03T08:34:44.711Z,96.30
2018-10-03T08:37:13.092Z,95.70
2018-10-03T08:39:41.611Z,94.90
2018-10-03T08:42:10.303Z,95.30
2018-10-03T08:44:38.684Z,95.50
2018-10-03T08:47:07.216Z,96.50
2018-10-03T08:49:35.603Z,95.20
2018-10-03T08:52:04.320Z,95.00
2018-10-03T08:54:34.415Z,93.40
2018-10-03T08:57:03.032Z,93.60
2018-10-03T08:59:31.561Z,93.50
2018-10-03T09:02:15.407Z,93.60
2018-10-03T09:04:43.994Z,92.70
2018-10-03T09:07:12.382Z,92.60
2018-10-03T09:09:41.011Z,91.80
2018-10-03T09:12:10.305Z,91.30
2018-10-03T09:14:39.149Z,91.90
2018-10-03T09:17:07.986Z,91.20
2018-10-03T09:19:36.526Z,91.20
2018-10-03T09:22:05.142Z,91.30
2018-10-03T09:24:33.717Z,91.20
2018-10-03T09:27:02.183Z,91.70
2018-10-03T09:29:30.576Z,92.00
2018-10-03T09:31:59.246Z,91.40
2018-10-03T09:34:27.932Z,91.50
2018-10-03T09:36:56.810Z,91.80
2018-10-03T09:39:27.470Z,91.90
2018-10-03T09:41:56.429Z,91.80
2018-10-03T09:44:24.934Z,91.50
2018-10-03T09:46:55.920Z,88.80
2018-10-03T09:49:25.923Z,86.40
2018-10-03T09:51:55.418Z,85.50
2018-10-03T09:54:24.204Z,85.90
2018-10-03T09:56:53.300Z,85.40
2018-10-03T09:59:22.941Z,85.90
2018-10-03T10:01:52.203Z,87.30
2018-10-03T10:04:20.720Z,87.40
2018-10-03T10:06:49.227Z,87.20
2018-10-03T10:09:17.722Z,85.90
2018-10-03T10:11:46.279Z,88.30
2018-10-03T10:14:14.877Z,89.70
2018-10-03T10:16:43.419Z,90.00
2018-10-03T10:19:12.149Z,90.00
2018-10-03T10:21:40.660Z,89.60
2018-10-03T10:24:09.462Z,89.10
2018-10-03T10:26:38.386Z,89.10
2018-10-03T10:29:06.988Z,87.80
2018-10-03T10:31:37.498Z,87.10
2018-10-03T10:34:05.934Z,86.20
2018-10-03T10:36:34.554Z,85.90
2018-10-03T10:39:03.190Z,86.90
2018-10-03T10:41:31.694Z,86.90
2018-10-03T10:44:00.026Z,84.70
2018-10-03T10:46:28.491Z,84.90
2018-10-03T10:48:57.328Z,88.30
2018-10-03T10:51:25.697Z,91.50
2018-10-03T10:53:54.228Z,94.90
2018-10-03T10:56:22.720Z,96.10
2018-10-03T10:58:54.273Z,97.60
2018-10-03T11:01:22.853Z,98.50
2018-10-03T11:03:51.248Z,98.80
2018-10-03T11:06:19.763Z,99.10
2018-10-03T11:08:48.033Z,99.80
2018-10-03T11:11:16.372Z,99.90
2018-10-03T11:13:44.741Z,99.80
2018-10-03T11:16:13.311Z,96.80
2018-10-03T11:18:43.277Z,95.40
2018-10-03T11:21:11.771Z,94.20
2018-10-03T11:23:41.732Z,96.40
2018-10-03T11:26:09.938Z,97.90
2018-10-03T11:28:38.876Z,99.40
2018-10-03T11:31:07.384Z,99.90
2018-10-03T11:33:35.943Z,99.90
2018-10-03T11:36:06.186Z,99.90
2018-10-03T11:38:34.724Z,99.90
2018-10-03T11:41:03.196Z,99.90
2018-10-03T11:43:32.048Z,99.90
2018-10-03T11:46:01.176Z,99.90
2018-10-03T11:48:29.594Z,99.90
2018-10-03T11:50:58.172Z,99.90
2018-10-03T11:53:27.804Z,99.90
2018-10-03T11:55:56.110Z,99.90
2018-10-03T11:58:24.488Z,99.90
2018-10-03T12:00:52.958Z,99.90
2018-10-03T12:03:21.380Z,99.90
2018-10-03T12:05:49.888Z,99.90
2018-10-03T12:08:18.261Z,98.80
2018-10-03T12:10:46.702Z,95.30
2018-10-03T12:13:15.807Z,95.20
2018-10-03T12:15:44.344Z,94.70
2018-10-03T12:18:12.744Z,94.30
2018-10-03T12:20:41.110Z,91.80
2018-10-03T12:23:09.500Z,91.00
2018-10-03T12:25:37.857Z,90.10
2018-10-03T12:28:06.243Z,88.60
2018-10-03T12:30:34.825Z,88.20
2018-10-03T12:33:03.254Z,88.00
2018-10-03T12:35:38.376Z,89.10
2018-10-03T12:38:06.684Z,86.70
2018-10-03T12:40:35.188Z,84.60
2018-10-03T12:43:03.543Z,84.90
2018-10-03T12:45:31.980Z,83.70
2018-10-03T12:48:00.543Z,81.60
2018-10-03T12:50:29.060Z,81.10
2018-10-03T12:52:57.536Z,79.30
2018-10-03T12:55:26.887Z,79.90
2018-10-03T12:57:55.490Z,79.60
2018-10-03T13:00:28.228Z,80.20
2018-10-03T13:02:57.428Z,79.60
2018-10-03T13:05:26.743Z,72.30
2018-10-03T13:07:57.113Z,69.00
2018-10-03T13:10:25.787Z,64.20
2018-10-03T13:12:54.301Z,60.70
2018-10-03T13:15:24.898Z,58.60
2018-10-03T13:17:53.570Z,58.60
2018-10-03T13:20:22.096Z,57.90
2018-10-03T13:22:50.609Z,57.70
2018-10-03T13:25:19.375Z,56.80
2018-10-03T13:27:48.312Z,58.00
2018-10-03T13:30:16.879Z,56.60
2018-10-03T13:32:45.181Z,56.00
2018-10-03T13:35:13.579Z,55.50
2018-10-03T13:37:42.217Z,55.00
2018-10-03T13:40:10.919Z,55.20
2018-10-03T13:42:39.525Z,54.30
2018-10-03T13:45:08.323Z,53.80
2018-10-03T13:47:37.092Z,53.60
2018-10-03T13:50:05.917Z,53.10
2018-10-03T13:52:34.454Z,53.30
2018-10-03T13:55:03.210Z,53.40
2018-10-03T13:57:33.236Z,53.20
2018-10-03T14:00:01.694Z,52.90
2018-10-03T14:02:30.104Z,52.90
2018-10-03T14:05:00.641Z,53.50
2018-10-03T14:07:31.018Z,53.10
2018-10-03T14:10:00.750Z,53.70
2018-10-03T14:12:29.735Z,54.70
2018-10-03T14:14:58.016Z,53.90
2018-10-03T14:17:26.458Z,55.40
2018-10-03T14:19:55.324Z,56.20
2018-10-03T14:22:23.697Z,55.40
2018-10-03T14:24:52.999Z,55.80
2018-10-03T14:27:21.409Z,55.90
2018-10-03T14:29:49.961Z,56.40
2018-10-03T14:32:25.426Z,56.00
2018-10-03T14:34:54.194Z,55.90
2018-10-03T14:37:22.765Z,55.90
2018-10-03T14:39:51.395Z,55.50
2018-10-03T14:42:19.782Z,56.20
2018-10-03T14:44:54.881Z,57.50
2018-10-03T14:47:23.294Z,55.60
2018-10-03T14:49:51.634Z,56.60
2018-10-03T14:52:20.104Z,57.20
2018-10-03T14:54:48.315Z,55.40
2018-10-03T14:57:16.763Z,56.00
2018-10-03T14:59:45.159Z,57.00
2018-10-03T15:02:13.646Z,54.60
2018-10-03T15:04:41.966Z,54.50
2018-10-03T15:07:10.560Z,54.70
2018-10-03T15:09:38.883Z,55.00
2018-10-03T15:12:07.507Z,55.50
2018-10-03T15:14:36.303Z,55.80
2018-10-03T15:17:04.647Z,56.10
2018-10-03T15:19:33.020Z,55.70
2018-10-03T15:22:01.575Z,55.50
2018-10-03T15:24:30.063Z,55.90
2018-10-03T15:26:59.630Z,56.30
2018-10-03T15:29:28.069Z,56.60
2018-10-03T15:31:56.376Z,56.40
2018-10-03T15:34:24.937Z,56.40
2018-10-03T15:36:53.252Z,56.20
2018-10-03T15:39:21.622Z,56.20
2018-10-03T15:41:50.940Z,55.60
2018-10-03T15:44:19.463Z,55.80
2018-10-03T15:46:47.789Z,55.40
2018-10-03T15:49:16.653Z,54.60
2018-10-03T15:51:45.050Z,55.20
2018-10-03T15:54:13.697Z,55.40
2018-10-03T15:56:43.130Z,55.40
2018-10-03T15:59:11.720Z,55.30
2018-10-03T16:01:40.896Z,55.10
2018-10-03T16:04:10.160Z,55.60
2018-10-03T16:06:39.038Z,55.80
2018-10-03T16:09:08.320Z,56.10
2018-10-03T16:11:36.768Z,56.50
2018-10-03T16:14:05.841Z,56.60
2018-10-03T16:16:34.351Z,57.00
2018-10-03T16:19:04.082Z,57.00
2018-10-03T16:21:32.351Z,57.30
2018-10-03T16:24:01.520Z,57.50
2018-10-03T16:26:30.014Z,57.40
2018-10-03T16:28:58.312Z,57.50
2018-10-03T16:31:26.808Z,57.80
2018-10-03T16:33:55.443Z,58.00
2018-10-03T16:36:24.152Z,58.20
2018-10-03T16:38:52.789Z,58.40
2018-10-03T16:41:21.589Z,58.50
2018-10-03T16:43:51.131Z,58.90
2018-10-03T16:46:19.840Z,59.10
2018-10-03T16:48:48.812Z,59.30
2018-10-03T16:51:17.493Z,59.40
2018-10-03T16:53:46.521Z,59.70
2018-10-03T16:56:15.523Z,59.80
2018-10-03T16:58:44.035Z,59.70
2018-10-03T17:01:12.583Z,60.10
2018-10-03T17:03:41.171Z,60.40
2018-10-03T17:06:09.774Z,60.90
2018-10-03T17:08:38.749Z,61.30
2018-10-03T17:11:21.840Z,61.80
2018-10-03T17:14:01.892Z,62.90
2018-10-03T17:16:30.456Z,63.60
2018-10-03T17:18:58.900Z,63.40
2018-10-03T17:21:27.448Z,64.70
2018-10-03T17:23:56.003Z,65.70
2018-10-03T17:26:24.558Z,66.40
2018-10-03T17:28:53.264Z,66.80
2018-10-03T17:31:21.748Z,67.90
2018-10-03T17:33:50.295Z,70.00
2018-10-03T17:36:18.541Z,70.40
2018-10-03T17:38:46.904Z,71.70
2018-10-03T17:41:15.485Z,73.30
2018-10-03T17:43:43.948Z,74.80
2018-10-03T17:46:12.319Z,76.30
2018-10-03T17:48:40.790Z,76.90
2018-10-03T17:51:09.193Z,77.60
2018-10-03T17:53:37.930Z,78.40
2018-10-03T17:56:07.324Z,78.60
2018-10-03T17:58:35.764Z,79.30
2018-10-03T18:01:04.504Z,79.50
2018-10-03T18:03:33.190Z,79.60
2018-10-03T18:06:02.456Z,79.60
2018-10-03T18:08:31.742Z,79.90
2018-10-03T18:11:00.675Z,80.10
2018-10-03T18:13:29.626Z,79.60
2018-10-03T18:15:58.636Z,79.70
2018-10-03T18:18:27.963Z,79.30
2018-10-03T18:20:57.319Z,79.60
2018-10-03T18:23:25.904Z,80.00
2018-10-03T18:26:02.008Z,80.20
2018-10-03T18:28:30.318Z,79.80
2018-10-03T18:30:58.617Z,79.80
2018-10-03T18:33:30.993Z,79.60
2018-10-03T18:35:59.335Z,80.30
2018-10-03T18:38:27.675Z,80.90
2018-10-03T18:40:56.876Z,81.30
2018-10-03T18:43:25.541Z,81.20
2018-10-03T18:45:54.007Z,81.90
2018-10-03T18:48:22.386Z,82.00
2018-10-03T18:50:57.881Z,82.30
2018-10-03T18:53:26.280Z,83.00
2018-10-03T18:55:54.795Z,83.10
2018-10-03T18:58:23.493Z,83.20
2018-10-03T19:00:52.088Z,83.50
2018-10-03T19:03:20.718Z,83.50
2018-10-03T19:05:49.241Z,83.30
2018-10-03T19:08:17.895Z,83.80
2018-10-03T19:10:48.243Z,84.40
2018-10-03T19:13:16.942Z,84.50
2018-10-03T19:15:46.031Z,84.90
2018-10-03T19:18:14.601Z,84.80
2018-10-03T19:20:43.122Z,85.10
2018-10-03T19:23:11.775Z,85.40
2018-10-03T19:25:42.320Z,85.60
2018-10-03T19:28:14.603Z,85.80
2018-10-03T19:30:43.704Z,85.90
2018-10-03T19:33:14.960Z,86.10
2018-10-03T19:35:44.161Z,86.30
2018-10-03T19:38:13.414Z,85.90
2018-10-03T19:40:42.329Z,85.80
2018-10-03T19:43:11.311Z,86.00
2018-10-03T19:45:40.036Z,86.30
2018-10-03T19:48:09.190Z,86.60
2018-10-03T19:50:41.012Z,86.60
2018-10-03T19:53:09.867Z,86.20
2018-10-03T19:55:39.145Z,86.10
2018-10-03T19:58:08.174Z,86.10
2018-10-03T20:00:36.664Z,86.40
2018-10-03T20:03:06.185Z,86.90
2018-10-03T20:05:35.253Z,86.70
2018-10-03T20:08:03.801Z,86.40
2018-10-03T20:10:32.511Z,86.70
2018-10-03T20:13:01.150Z,86.60
2018-10-03T20:15:29.740Z,86.60
2018-10-03T20:17:58.412Z,86.40
2018-10-03T20:20:27.265Z,86.10
2018-10-03T20:22:55.987Z,86.30
2018-10-03T20:25:25.292Z,86.60
2018-10-03T20:27:53.672Z,86.50
2018-10-03T20:30:22.242Z,86.20
2018-10-03T20:32:50.704Z,86.10
2018-10-03T20:35:19.142Z,85.70
2018-10-03T20:37:49.185Z,85.50
2018-10-03T20:40:17.775Z,85.20
2018-10-03T20:42:46.331Z,85.20
2018-10-03T20:45:14.998Z,85.20
2018-10-03T20:47:43.562Z,85.30
2018-10-03T20:50:12.030Z,85.50
2018-10-03T20:52:40.469Z,85.70
2018-10-03T20:55:08.944Z,85.90
2018-10-03T20:57:37.445Z,85.80
2018-10-03T21:00:06.077Z,85.90
2018-10-03T21:02:34.764Z,85.90
2018-10-03T21:05:03.627Z,85.80
2018-10-03T21:07:32.308Z,86.40
2018-10-03T21:10:00.719Z,86.70
2018-10-03T21:12:29.345Z,87.10
2018-10-03T21:14:57.900Z,87.10
2018-10-03T21:17:26.545Z,88.10
2018-10-03T21:19:55.007Z,88.40
2018-10-03T21:22:23.534Z,88.70
2018-10-03T21:24:51.929Z,89.20
2018-10-03T21:27:20.777Z,89.80
2018-10-03T21:29:49.509Z,90.00
2018-10-03T21:32:18.304Z,90.10
2018-10-03T21:34:47.826Z,90.10
2018-10-03T21:37:16.213Z,90.00
2018-10-03T21:39:44.942Z,90.00
2018-10-03T21:42:13.454Z,90.30
2018-10-03T21:44:41.835Z,90.20
2018-10-03T21:47:10.208Z,90.30
2018-10-03T21:49:38.897Z,90.40
2018-10-03T21:52:07.452Z,90.80
2018-10-03T21:54:35.968Z,91.00
2018-10-03T21:57:04.527Z,91.40
2018-10-03T21:59:39.652Z,91.60
2018-10-03T22:02:08.163Z,91.90
2018-10-03T22:04:36.544Z,91.90
2018-10-03T22:07:05.118Z,91.80
2018-10-03T22:09:33.525Z,92.40
2018-10-03T22:12:01.782Z,92.40
2018-10-03T22:14:30.366Z,92.40
2018-10-03T22:16:58.872Z,92.40
2018-10-03T22:19:27.320Z,92.50
2018-10-03T22:21:56.534Z,92.60
2018-10-03T22:24:25.115Z,92.60
2018-10-03T22:26:53.617Z,92.70
2018-10-03T22:29:22.133Z,92.60
2018-10-03T22:31:50.424Z,92.60
2018-10-03T22:34:18.801Z,92.90
2018-10-03T22:36:47.181Z,92.90
2018-10-03T22:39:15.686Z,92.80
2018-10-03T22:41:44.069Z,92.80
2018-10-03T22:44:12.491Z,92.90
2018-10-03T22:46:40.792Z,92.80
2018-10-03T22:49:09.340Z,92.80
2018-10-03T22:51:37.725Z,92.70
2018-10-03T22:54:06.081Z,92.70
2018-10-03T22:56:34.563Z,92.70
2018-10-03T22:59:03.123Z,92.80
2018-10-03T23:01:31.789Z,92.80
2018-10-03T23:04:00.321Z,92.90
2018-10-03T23:06:28.811Z,93.00
2018-10-03T23:08:57.230Z,93.30
2018-10-03T23:11:25.767Z,93.50
2018-10-03T23:13:54.133Z,93.80
2018-10-03T23:16:22.653Z,94.10
2018-10-03T23:18:51.083Z,94.40
2018-10-03T23:21:19.559Z,94.50
2018-10-03T23:23:47.908Z,94.60
2018-10-03T23:26:16.233Z,94.70
2018-10-03T23:28:44.678Z,95.00
2018-10-03T23:31:13.214Z,95.50
2018-10-03T23:33:41.534Z,95.80
2018-10-03T23:36:09.914Z,96.20
2018-10-03T23:38:38.299Z,96.60
2018-10-03T23:41:06.818Z,96.80
2018-10-03T23:43:35.932Z,96.90
2018-10-03T23:46:04.463Z,97.00
2018-10-03T23:48:33.336Z,97.00
2018-10-03T23:51:02.449Z,96.90
2018-10-03T23:53:30.958Z,97.00
2018-10-03T23:55:59.527Z,97.40
2018-10-03T23:58:28.025Z,98.00
